sensor_id;sensor_type;location;lat;lon;timestamp;temperature;humidity
5796;DHT22;2924;51.458;7.046;2023-06-14T00:01:34;17.30;99.90
5796;DHT22;2924;51.458;7.046;2023-06-14T00:04:01;17.20;99.90
5796;DHT22;2924;51.458;7.046;2023-06-14T00:06:28;17.10;99.90
5796;DHT22;2924;51.458;7.046;2023-06-14T00:08:54;17.10;99.90
5796;DHT22;2924;51.458;7.046;2023-06-14T00:11:20;17.10;99.90
5796;DHT22;2924;51.458;7.046;2023-06-14T00:13:46;17.10;99.90
5796;DHT22;2924;51.458;7.046;2023-06-14T00:16:12;17.10;99.90
5796;DHT22;2924;51.458;7.046;2023-06-14T00:18:37;17.00;99.90
5796;DHT22;2924;51.458;7.046;2023-06-14T00:21:03;17.00;99.90
5796;DHT22;2924;51.458;7.046;2023-06-14T00:23:29;17.00;99.90
5796;DHT22;2924;51.458;7.046;2023-06-14T00:25:55;17.00;99.90
5796;DHT22;2924;51.458;7.046;2023-06-14T00:28:20;17.00;99.90
5796;DHT22;2924;51.458;7.046;2023-06-14T00:30:46;16.90;99.90
5796;DHT22;2924;51.458;7.046;2023-06-14T00:33:12;16.80;99.90
5796;DHT22;2924;51.458;7.046;2023-06-14T00:35:38;16.70;99.90
5796;DHT22;2924;51.458;7.046;2023-06-14T00:38:03;16.60;99.90
5796;DHT22;2924;51.458;7.046;2023-06-14T00:40:29;16.70;99.90
5796;DHT22;2924;51.458;7.046;2023-06-14T00:42:54;16.60;99.90
5796;DHT22;2924;51.458;7.046;2023-06-14T00:45:20;16.60;99.90
5796;DHT22;2924;51.458;7.046;2023-06-14T00:47:46;16.60;99.90
5796;DHT22;2924;51.458;7.046;2023-06-14T00:50:13;16.40;99.90
5796;DHT22;2924;51.458;7.046;2023-06-14T00:52:39;16.40;99.90
5796;DHT22;2924;51.458;7.046;2023-06-14T00:55:05;16.30;99.90
5796;DHT22;2924;51.458;7.046;2023-06-14T00:57:31;16.30;99.90
5796;DHT22;2924;51.458;7.046;2023-06-14T00:59:57;16.20;99.90
5796;DHT22;2924;51.458;7.046;2023-06-14T01:02:23;16.20;99.90
5796;DHT22;2924;51.458;7.046;2023-06-14T01:04:52;16.10;99.90
5796;DHT22;2924;51.458;7.046;2023-06-14T01:13:12;15.80;99.90
5796;DHT22;2924;51.458;7.046;2023-06-14T01:15:43;15.70;99.90
5796;DHT22;2924;51.458;7.046;2023-06-14T01:18:09;15.70;99.90
5796;DHT22;2924;51.458;7.046;2023-06-14T01:20:44;15.70;99.90
5796;DHT22;2924;51.458;7.046;2023-06-14T01:23:11;15.70;99.90
5796;DHT22;2924;51.458;7.046;2023-06-14T01:25:40;15.80;99.90
5796;DHT22;2924;51.458;7.046;2023-06-14T01:28:10;15.70;99.90
5796;DHT22;2924;51.458;7.046;2023-06-14T01:30:39;15.70;99.90
5796;DHT22;2924;51.458;7.046;2023-06-14T01:33:11;15.60;99.90
5796;DHT22;2924;51.458;7.046;2023-06-14T01:35:37;15.60;99.90
5796;DHT22;2924;51.458;7.046;2023-06-14T01:38:03;15.50;99.90
5796;DHT22;2924;51.458;7.046;2023-06-14T01:40:30;15.50;99.90
5796;DHT22;2924;51.458;7.046;2023-06-14T01:42:57;15.50;99.90
5796;DHT22;2924;51.458;7.046;2023-06-14T01:45:23;15.40;99.90
5796;DHT22;2924;51.458;7.046;2023-06-14T01:47:49;15.50;99.90
5796;DHT22;2924;51.458;7.046;2023-06-14T01:50:15;15.50;99.90
5796;DHT22;2924;51.458;7.046;2023-06-14T01:52:41;15.50;99.90
5796;DHT22;2924;51.458;7.046;2023-06-14T01:55:07;15.60;99.90
5796;DHT22;2924;51.458;7.046;2023-06-14T01:57:33;15.70;99.90
5796;DHT22;2924;51.458;7.046;2023-06-14T01:59:59;15.70;99.90
5796;DHT22;2924;51.458;7.046;2023-06-14T02:02:24;15.70;99.90
5796;DHT22;2924;51.458;7.046;2023-06-14T02:04:50;15.60;99.90
5796;DHT22;2924;51.458;7.046;2023-06-14T02:07:15;15.50;99.90
5796;DHT22;2924;51.458;7.046;2023-06-14T02:09:41;15.50;99.90
5796;DHT22;2924;51.458;7.046;2023-06-14T02:12:07;15.40;99.90
5796;DHT22;2924;51.458;7.046;2023-06-14T02:14:33;15.30;99.90
5796;DHT22;2924;51.458;7.046;2023-06-14T02:16:59;15.30;99.90
5796;DHT22;2924;51.458;7.046;2023-06-14T02:19:26;15.20;99.90
5796;DHT22;2924;51.458;7.046;2023-06-14T02:21:52;15.10;99.90
5796;DHT22;2924;51.458;7.046;2023-06-14T02:24:17;15.10;99.90
5796;DHT22;2924;51.458;7.046;2023-06-14T02:26:43;15.20;99.90
5796;DHT22;2924;51.458;7.046;2023-06-14T02:29:09;15.10;99.90
5796;DHT22;2924;51.458;7.046;2023-06-14T02:31:36;15.00;99.90
5796;DHT22;2924;51.458;7.046;2023-06-14T02:34:02;15.00;99.90
5796;DHT22;2924;51.458;7.046;2023-06-14T02:36:28;14.90;99.90
5796;DHT22;2924;51.458;7.046;2023-06-14T02:38:55;14.90;99.90
5796;DHT22;2924;51.458;7.046;2023-06-14T02:41:23;14.90;99.90
5796;DHT22;2924;51.458;7.046;2023-06-14T02:43:49;15.00;99.90
5796;DHT22;2924;51.458;7.046;2023-06-14T02:46:14;15.00;99.90
5796;DHT22;2924;51.458;7.046;2023-06-14T02:48:40;15.00;99.90
5796;DHT22;2924;51.458;7.046;2023-06-14T02:51:05;15.00;99.90
5796;DHT22;2924;51.458;7.046;2023-06-14T02:53:31;14.90;99.90
5796;DHT22;2924;51.458;7.046;2023-06-14T02:55:57;14.70;99.90
5796;DHT22;2924;51.458;7.046;2023-06-14T02:58:22;14.80;99.90
5796;DHT22;2924;51.458;7.046;2023-06-14T03:00:50;14.80;99.90
5796;DHT22;2924;51.458;7.046;2023-06-14T03:03:17;14.80;99.90
5796;DHT22;2924;51.458;7.046;2023-06-14T03:05:45;14.70;99.90
5796;DHT22;2924;51.458;7.046;2023-06-14T03:08:16;14.60;99.90
5796;DHT22;2924;51.458;7.046;2023-06-14T03:10:45;14.60;99.90
5796;DHT22;2924;51.458;7.046;2023-06-14T03:13:11;14.50;99.90
5796;DHT22;2924;51.458;7.046;2023-06-14T03:15:37;14.50;99.90
5796;DHT22;2924;51.458;7.046;2023-06-14T03:18:04;14.50;99.90
5796;DHT22;2924;51.458;7.046;2023-06-14T03:20:29;14.30;99.90
5796;DHT22;2924;51.458;7.046;2023-06-14T03:23:01;14.30;99.90
5796;DHT22;2924;51.458;7.046;2023-06-14T03:25:27;14.40;99.90
5796;DHT22;2924;51.458;7.046;2023-06-14T03:27:55;14.30;99.90
5796;DHT22;2924;51.458;7.046;2023-06-14T03:30:21;14.40;99.90
5796;DHT22;2924;51.458;7.046;2023-06-14T03:32:46;14.50;99.90
5796;DHT22;2924;51.458;7.046;2023-06-14T03:35:12;14.50;99.90
5796;DHT22;2924;51.458;7.046;2023-06-14T03:37:46;14.60;99.90
5796;DHT22;2924;51.458;7.046;2023-06-14T03:40:13;14.60;99.90
5796;DHT22;2924;51.458;7.046;2023-06-14T03:42:39;14.60;99.90
5796;DHT22;2924;51.458;7.046;2023-06-14T03:45:05;14.60;99.90
5796;DHT22;2924;51.458;7.046;2023-06-14T03:47:31;14.80;99.90
5796;DHT22;2924;51.458;7.046;2023-06-14T03:49:57;15.10;99.90
5796;DHT22;2924;51.458;7.046;2023-06-14T03:52:23;15.40;99.90
5796;DHT22;2924;51.458;7.046;2023-06-14T03:54:49;15.70;99.90
5796;DHT22;2924;51.458;7.046;2023-06-14T03:57:15;15.90;99.90
5796;DHT22;2924;51.458;7.046;2023-06-14T03:59:41;16.00;99.90
5796;DHT22;2924;51.458;7.046;2023-06-14T04:02:07;16.20;99.90
5796;DHT22;2924;51.458;7.046;2023-06-14T04:04:32;16.40;99.90
5796;DHT22;2924;51.458;7.046;2023-06-14T04:06:58;16.50;99.90
5796;DHT22;2924;51.458;7.046;2023-06-14T04:09:25;16.40;99.90
5796;DHT22;2924;51.458;7.046;2023-06-14T04:11:55;16.50;99.90
5796;DHT22;2924;51.458;7.046;2023-06-14T04:14:21;16.60;99.90
5796;DHT22;2924;51.458;7.046;2023-06-14T04:16:47;16.70;99.90
5796;DHT22;2924;51.458;7.046;2023-06-14T04:19:13;17.10;99.90
5796;DHT22;2924;51.458;7.046;2023-06-14T04:21:38;17.40;99.90
5796;DHT22;2924;51.458;7.046;2023-06-14T04:24:04;17.80;99.40
5796;DHT22;2924;51.458;7.046;2023-06-14T04:26:30;18.00;98.60
5796;DHT22;2924;51.458;7.046;2023-06-14T04:28:59;18.20;97.90
5796;DHT22;2924;51.458;7.046;2023-06-14T04:31:28;18.30;97.80
5796;DHT22;2924;51.458;7.046;2023-06-14T04:33:55;18.60;96.80
5796;DHT22;2924;51.458;7.046;2023-06-14T04:36:21;18.90;96.00
5796;DHT22;2924;51.458;7.046;2023-06-14T04:38:46;18.60;96.50
5796;DHT22;2924;51.458;7.046;2023-06-14T04:41:14;18.90;95.70
5796;DHT22;2924;51.458;7.046;2023-06-14T04:43:41;19.00;95.50
5796;DHT22;2924;51.458;7.046;2023-06-14T04:46:08;19.10;95.30
5796;DHT22;2924;51.458;7.046;2023-06-14T04:48:39;19.50;94.70
5796;DHT22;2924;51.458;7.046;2023-06-14T04:51:09;19.30;94.50
5796;DHT22;2924;51.458;7.046;2023-06-14T04:53:35;19.50;94.40
5796;DHT22;2924;51.458;7.046;2023-06-14T04:56:01;19.50;94.10
5796;DHT22;2924;51.458;7.046;2023-06-14T04:58:28;19.30;94.40
5796;DHT22;2924;51.458;7.046;2023-06-14T05:00:54;19.40;94.20
5796;DHT22;2924;51.458;7.046;2023-06-14T05:03:21;19.50;94.40
5796;DHT22;2924;51.458;7.046;2023-06-14T05:05:47;20.00;93.50
5796;DHT22;2924;51.458;7.046;2023-06-14T05:08:13;20.10;93.10
5796;DHT22;2924;51.458;7.046;2023-06-14T05:10:39;19.90;93.10
5796;DHT22;2924;51.458;7.046;2023-06-14T05:13:04;20.10;93.20
5796;DHT22;2924;51.458;7.046;2023-06-14T05:15:30;20.40;92.70
5796;DHT22;2924;51.458;7.046;2023-06-14T05:17:55;20.30;92.60
5796;DHT22;2924;51.458;7.046;2023-06-14T05:20:22;20.30;92.20
5796;DHT22;2924;51.458;7.046;2023-06-14T05:22:53;19.90;92.90
5796;DHT22;2924;51.458;7.046;2023-06-14T05:25:21;19.60;93.60
5796;DHT22;2924;51.458;7.046;2023-06-14T05:27:47;19.40;93.90
5796;DHT22;2924;51.458;7.046;2023-06-14T05:30:15;19.30;93.90
5796;DHT22;2924;51.458;7.046;2023-06-14T05:32:41;18.90;94.00
5796;DHT22;2924;51.458;7.046;2023-06-14T05:35:07;18.70;94.50
5796;DHT22;2924;51.458;7.046;2023-06-14T05:37:32;18.60;95.30
5796;DHT22;2924;51.458;7.046;2023-06-14T05:39:58;18.30;95.40
5796;DHT22;2924;51.458;7.046;2023-06-14T05:42:23;18.30;95.80
5796;DHT22;2924;51.458;7.046;2023-06-14T05:44:49;18.20;96.30
5796;DHT22;2924;51.458;7.046;2023-06-14T05:47:15;18.40;96.20
5796;DHT22;2924;51.458;7.046;2023-06-14T05:49:41;18.60;96.60
5796;DHT22;2924;51.458;7.046;2023-06-14T05:52:07;18.60;96.20
5796;DHT22;2924;51.458;7.046;2023-06-14T05:54:33;18.70;96.20
5796;DHT22;2924;51.458;7.046;2023-06-14T05:56:59;18.60;95.70
5796;DHT22;2924;51.458;7.046;2023-06-14T05:59:27;18.70;95.80
5796;DHT22;2924;51.458;7.046;2023-06-14T06:01:52;18.70;95.70
5796;DHT22;2924;51.458;7.046;2023-06-14T06:04:18;18.70;96.10
5796;DHT22;2924;51.458;7.046;2023-06-14T06:06:44;18.60;96.50
5796;DHT22;2924;51.458;7.046;2023-06-14T06:09:10;18.60;97.10
5796;DHT22;2924;51.458;7.046;2023-06-14T06:11:36;18.70;97.00
5796;DHT22;2924;51.458;7.046;2023-06-14T06:14:01;18.80;96.00
5796;DHT22;2924;51.458;7.046;2023-06-14T06:16:27;18.70;96.60
5796;DHT22;2924;51.458;7.046;2023-06-14T06:18:53;18.90;95.50
5796;DHT22;2924;51.458;7.046;2023-06-14T06:21:18;19.00;95.80
5796;DHT22;2924;51.458;7.046;2023-06-14T06:23:44;19.00;95.70
5796;DHT22;2924;51.458;7.046;2023-06-14T06:26:10;19.00;95.10
5796;DHT22;2924;51.458;7.046;2023-06-14T06:28:35;19.20;94.90
5796;DHT22;2924;51.458;7.046;2023-06-14T06:31:01;19.40;94.10
5796;DHT22;2924;51.458;7.046;2023-06-14T06:33:26;19.70;93.70
5796;DHT22;2924;51.458;7.046;2023-06-14T06:35:52;19.90;93.10
5796;DHT22;2924;51.458;7.046;2023-06-14T06:38:18;20.10;92.70
5796;DHT22;2924;51.458;7.046;2023-06-14T06:40:44;21.00;92.30
5796;DHT22;2924;51.458;7.046;2023-06-14T06:43:10;21.20;91.30
5796;DHT22;2924;51.458;7.046;2023-06-14T06:45:42;22.00;90.70
5796;DHT22;2924;51.458;7.046;2023-06-14T06:48:07;22.00;90.30
5796;DHT22;2924;51.458;7.046;2023-06-14T06:50:35;22.30;90.10
5796;DHT22;2924;51.458;7.046;2023-06-14T06:53:01;22.80;89.50
5796;DHT22;2924;51.458;7.046;2023-06-14T06:55:27;22.90;89.10
5796;DHT22;2924;51.458;7.046;2023-06-14T06:57:53;23.20;87.70
5796;DHT22;2924;51.458;7.046;2023-06-14T07:00:20;23.30;87.20
5796;DHT22;2924;51.458;7.046;2023-06-14T07:02:45;23.20;86.70
5796;DHT22;2924;51.458;7.046;2023-06-14T07:05:11;22.30;86.90
5796;DHT22;2924;51.458;7.046;2023-06-14T07:07:37;22.00;88.00
5796;DHT22;2924;51.458;7.046;2023-06-14T07:10:04;21.80;88.80
5796;DHT22;2924;51.458;7.046;2023-06-14T07:12:33;21.70;88.50
5796;DHT22;2924;51.458;7.046;2023-06-14T07:15:01;22.10;88.90
5796;DHT22;2924;51.458;7.046;2023-06-14T07:17:27;22.90;88.10
5796;DHT22;2924;51.458;7.046;2023-06-14T07:19:53;22.90;86.90
5796;DHT22;2924;51.458;7.046;2023-06-14T07:22:19;22.60;86.50
5796;DHT22;2924;51.458;7.046;2023-06-14T07:24:45;22.60;86.90
5796;DHT22;2924;51.458;7.046;2023-06-14T07:27:11;22.50;86.10
5796;DHT22;2924;51.458;7.046;2023-06-14T07:29:38;22.60;86.40
5796;DHT22;2924;51.458;7.046;2023-06-14T07:32:04;22.50;86.10
5796;DHT22;2924;51.458;7.046;2023-06-14T07:34:30;22.70;86.60
5796;DHT22;2924;51.458;7.046;2023-06-14T07:36:55;23.00;87.00
5796;DHT22;2924;51.458;7.046;2023-06-14T07:39:21;22.50;88.00
5796;DHT22;2924;51.458;7.046;2023-06-14T07:41:47;22.80;86.50
5796;DHT22;2924;51.458;7.046;2023-06-14T07:44:12;22.40;86.90
5796;DHT22;2924;51.458;7.046;2023-06-14T07:46:38;22.50;86.50
5796;DHT22;2924;51.458;7.046;2023-06-14T07:49:04;23.10;86.00
5796;DHT22;2924;51.458;7.046;2023-06-14T07:51:30;23.00;86.10
5796;DHT22;2924;51.458;7.046;2023-06-14T07:53:56;22.50;86.50
5796;DHT22;2924;51.458;7.046;2023-06-14T07:56:22;22.30;87.10
5796;DHT22;2924;51.458;7.046;2023-06-14T07:58:48;22.40;88.30
5796;DHT22;2924;51.458;7.046;2023-06-14T08:01:14;22.50;88.00
5796;DHT22;2924;51.458;7.046;2023-06-14T08:03:40;23.20;87.00
5796;DHT22;2924;51.458;7.046;2023-06-14T08:06:07;23.30;86.20
5796;DHT22;2924;51.458;7.046;2023-06-14T08:08:32;23.30;86.30
5796;DHT22;2924;51.458;7.046;2023-06-14T08:10:58;23.40;85.80
5796;DHT22;2924;51.458;7.046;2023-06-14T08:13:24;24.00;85.60
5796;DHT22;2924;51.458;7.046;2023-06-14T08:15:49;23.20;86.20
5796;DHT22;2924;51.458;7.046;2023-06-14T08:18:15;23.30;85.80
5796;DHT22;2924;51.458;7.046;2023-06-14T08:20:41;23.20;86.20
5796;DHT22;2924;51.458;7.046;2023-06-14T08:23:07;23.80;85.20
5796;DHT22;2924;51.458;7.046;2023-06-14T08:25:34;23.70;86.00
5796;DHT22;2924;51.458;7.046;2023-06-14T08:28:00;24.20;84.40
5796;DHT22;2924;51.458;7.046;2023-06-14T08:30:26;23.60;85.10
5796;DHT22;2924;51.458;7.046;2023-06-14T08:32:51;23.20;84.90
5796;DHT22;2924;51.458;7.046;2023-06-14T08:35:18;24.20;85.80
5796;DHT22;2924;51.458;7.046;2023-06-14T08:37:43;25.60;82.90
5796;DHT22;2924;51.458;7.046;2023-06-14T08:40:19;25.60;82.50
5796;DHT22;2924;51.458;7.046;2023-06-14T08:42:51;24.60;82.00
5796;DHT22;2924;51.458;7.046;2023-06-14T08:45:18;23.90;81.80
5796;DHT22;2924;51.458;7.046;2023-06-14T08:47:45;23.80;83.20
5796;DHT22;2924;51.458;7.046;2023-06-14T08:50:11;23.80;81.80
5796;DHT22;2924;51.458;7.046;2023-06-14T08:52:38;24.00;82.50
5796;DHT22;2924;51.458;7.046;2023-06-14T08:55:16;23.90;81.90
5796;DHT22;2924;51.458;7.046;2023-06-14T08:57:44;23.30;82.70
5796;DHT22;2924;51.458;7.046;2023-06-14T09:00:12;23.40;83.50
5796;DHT22;2924;51.458;7.046;2023-06-14T09:02:39;23.40;83.40
5796;DHT22;2924;51.458;7.046;2023-06-14T09:05:09;24.00;83.30
5796;DHT22;2924;51.458;7.046;2023-06-14T09:07:37;25.10;81.50
5796;DHT22;2924;51.458;7.046;2023-06-14T09:10:11;24.80;80.20
5796;DHT22;2924;51.458;7.046;2023-06-14T09:12:37;25.50;80.10
5796;DHT22;2924;51.458;7.046;2023-06-14T09:15:07;25.50;78.80
5796;DHT22;2924;51.458;7.046;2023-06-14T09:17:37;24.70;79.10
5796;DHT22;2924;51.458;7.046;2023-06-14T09:20:04;23.70;79.50
5796;DHT22;2924;51.458;7.046;2023-06-14T09:22:34;24.10;79.70
5796;DHT22;2924;51.458;7.046;2023-06-14T09:25:00;24.50;79.50
5796;DHT22;2924;51.458;7.046;2023-06-14T09:27:26;25.30;79.80
5796;DHT22;2924;51.458;7.046;2023-06-14T09:29:52;25.10;79.20
5796;DHT22;2924;51.458;7.046;2023-06-14T09:32:18;26.20;79.00
5796;DHT22;2924;51.458;7.046;2023-06-14T09:34:45;25.30;78.70
5796;DHT22;2924;51.458;7.046;2023-06-14T09:37:11;26.00;78.60
5796;DHT22;2924;51.458;7.046;2023-06-14T09:39:49;26.30;77.30
5796;DHT22;2924;51.458;7.046;2023-06-14T09:42:19;25.50;78.30
5796;DHT22;2924;51.458;7.046;2023-06-14T09:44:48;26.20;78.40
5796;DHT22;2924;51.458;7.046;2023-06-14T09:47:17;27.20;77.10
5796;DHT22;2924;51.458;7.046;2023-06-14T09:49:44;26.60;77.60
5796;DHT22;2924;51.458;7.046;2023-06-14T09:52:21;27.30;77.00
5796;DHT22;2924;51.458;7.046;2023-06-14T09:54:48;26.10;77.00
5796;DHT22;2924;51.458;7.046;2023-06-14T09:57:21;26.20;76.30
5796;DHT22;2924;51.458;7.046;2023-06-14T09:59:48;24.70;77.70
5796;DHT22;2924;51.458;7.046;2023-06-14T10:02:29;24.00;77.70
5796;DHT22;2924;51.458;7.046;2023-06-14T10:05:03;24.70;78.20
5796;DHT22;2924;51.458;7.046;2023-06-14T10:07:38;25.60;76.60
5796;DHT22;2924;51.458;7.046;2023-06-14T10:10:06;25.00;76.30
5796;DHT22;2924;51.458;7.046;2023-06-14T10:12:32;24.40;78.50
5796;DHT22;2924;51.458;7.046;2023-06-14T10:14:58;25.00;77.50
5796;DHT22;2924;51.458;7.046;2023-06-14T10:17:35;25.50;76.10
5796;DHT22;2924;51.458;7.046;2023-06-14T10:20:37;24.90;76.70
5796;DHT22;2924;51.458;7.046;2023-06-14T10:25:35;24.90;75.60
5796;DHT22;2924;51.458;7.046;2023-06-14T10:28:16;24.00;77.60
5796;DHT22;2924;51.458;7.046;2023-06-14T10:33:26;23.10;79.30
5796;DHT22;2924;51.458;7.046;2023-06-14T10:36:11;22.70;79.40
5796;DHT22;2924;51.458;7.046;2023-06-14T10:39:06;22.80;80.30
5796;DHT22;2924;51.458;7.046;2023-06-14T10:41:35;23.90;79.30
5796;DHT22;2924;51.458;7.046;2023-06-14T10:46:39;24.80;78.60
5796;DHT22;2924;51.458;7.046;2023-06-14T10:49:05;25.70;78.50
5796;DHT22;2924;51.458;7.046;2023-06-14T10:51:46;26.30;77.90
5796;DHT22;2924;51.458;7.046;2023-06-14T10:54:15;27.10;76.50
5796;DHT22;2924;51.458;7.046;2023-06-14T10:56:52;27.50;76.30
5796;DHT22;2924;51.458;7.046;2023-06-14T10:59:19;27.80;76.40
5796;DHT22;2924;51.458;7.046;2023-06-14T11:02:20;26.20;76.70
5796;DHT22;2924;51.458;7.046;2023-06-14T11:04:53;25.90;77.10
5796;DHT22;2924;51.458;7.046;2023-06-14T11:13:02;23.80;80.60
5796;DHT22;2924;51.458;7.046;2023-06-14T11:15:35;23.90;80.60
5796;DHT22;2924;51.458;7.046;2023-06-14T11:18:05;24.20;80.60
5796;DHT22;2924;51.458;7.046;2023-06-14T11:20:33;25.20;79.90
5796;DHT22;2924;51.458;7.046;2023-06-14T11:22:59;26.20;78.20
5796;DHT22;2924;51.458;7.046;2023-06-14T11:25:26;24.90;78.60
5796;DHT22;2924;51.458;7.046;2023-06-14T11:27:54;25.70;78.50
5796;DHT22;2924;51.458;7.046;2023-06-14T11:30:20;25.00;78.70
5796;DHT22;2924;51.458;7.046;2023-06-14T11:32:53;24.60;80.50
5796;DHT22;2924;51.458;7.046;2023-06-14T11:35:22;24.40;80.30
5796;DHT22;2924;51.458;7.046;2023-06-14T11:37:49;23.80;81.30
5796;DHT22;2924;51.458;7.046;2023-06-14T11:40:17;24.40;80.80
5796;DHT22;2924;51.458;7.046;2023-06-14T11:42:43;25.20;80.20
5796;DHT22;2924;51.458;7.046;2023-06-14T11:45:10;25.90;79.30
5796;DHT22;2924;51.458;7.046;2023-06-14T11:47:38;25.70;79.00
5796;DHT22;2924;51.458;7.046;2023-06-14T11:50:05;25.40;79.80
5796;DHT22;2924;51.458;7.046;2023-06-14T11:52:32;25.50;78.60
5796;DHT22;2924;51.458;7.046;2023-06-14T11:54:58;25.00;79.60
5796;DHT22;2924;51.458;7.046;2023-06-14T11:57:25;24.60;80.90
5796;DHT22;2924;51.458;7.046;2023-06-14T11:59:50;25.10;80.70
5796;DHT22;2924;51.458;7.046;2023-06-14T12:02:17;24.60;81.10
5796;DHT22;2924;51.458;7.046;2023-06-14T12:04:43;25.40;81.20
5796;DHT22;2924;51.458;7.046;2023-06-14T12:07:13;24.90;79.70
5796;DHT22;2924;51.458;7.046;2023-06-14T12:10:03;24.80;80.40
5796;DHT22;2924;51.458;7.046;2023-06-14T12:12:36;25.70;80.10
5796;DHT22;2924;51.458;7.046;2023-06-14T12:15:06;26.10;80.30
5796;DHT22;2924;51.458;7.046;2023-06-14T12:17:36;27.20;79.00
5796;DHT22;2924;51.458;7.046;2023-06-14T12:20:10;26.80;79.00
5796;DHT22;2924;51.458;7.046;2023-06-14T12:22:37;27.10;78.30
5796;DHT22;2924;51.458;7.046;2023-06-14T12:25:04;26.90;78.50
5796;DHT22;2924;51.458;7.046;2023-06-14T12:27:30;26.80;79.00
5796;DHT22;2924;51.458;7.046;2023-06-14T12:30:02;27.40;77.70
5796;DHT22;2924;51.458;7.046;2023-06-14T12:32:29;26.80;78.40
5796;DHT22;2924;51.458;7.046;2023-06-14T12:34:55;26.80;79.50
5796;DHT22;2924;51.458;7.046;2023-06-14T12:37:21;26.70;78.00
5796;DHT22;2924;51.458;7.046;2023-06-14T12:39:47;26.20;78.80
5796;DHT22;2924;51.458;7.046;2023-06-14T12:42:12;25.60;80.30
5796;DHT22;2924;51.458;7.046;2023-06-14T12:44:39;25.90;78.70
5796;DHT22;2924;51.458;7.046;2023-06-14T12:47:07;25.80;78.60
5796;DHT22;2924;51.458;7.046;2023-06-14T12:49:33;25.80;79.90
5796;DHT22;2924;51.458;7.046;2023-06-14T12:51:58;25.90;79.50
5796;DHT22;2924;51.458;7.046;2023-06-14T12:54:24;26.00;79.10
5796;DHT22;2924;51.458;7.046;2023-06-14T12:56:51;25.80;78.10
5796;DHT22;2924;51.458;7.046;2023-06-14T12:59:17;25.20;79.70
5796;DHT22;2924;51.458;7.046;2023-06-14T13:01:43;25.00;80.50
5796;DHT22;2924;51.458;7.046;2023-06-14T13:04:10;25.30;78.60
5796;DHT22;2924;51.458;7.046;2023-06-14T13:06:36;25.10;79.10
5796;DHT22;2924;51.458;7.046;2023-06-14T13:09:01;25.20;78.30
5796;DHT22;2924;51.458;7.046;2023-06-14T13:11:29;24.60;78.90
5796;DHT22;2924;51.458;7.046;2023-06-14T13:13:55;25.20;78.50
5796;DHT22;2924;51.458;7.046;2023-06-14T13:16:20;25.70;79.00
5796;DHT22;2924;51.458;7.046;2023-06-14T13:18:46;25.70;78.50
5796;DHT22;2924;51.458;7.046;2023-06-14T13:21:11;25.50;79.10
5796;DHT22;2924;51.458;7.046;2023-06-14T13:23:37;26.10;79.40
5796;DHT22;2924;51.458;7.046;2023-06-14T13:26:02;26.00;78.00
5796;DHT22;2924;51.458;7.046;2023-06-14T13:28:28;26.10;78.70
5796;DHT22;2924;51.458;7.046;2023-06-14T13:30:54;26.10;79.00
5796;DHT22;2924;51.458;7.046;2023-06-14T13:33:21;26.70;78.60
5796;DHT22;2924;51.458;7.046;2023-06-14T13:35:47;27.30;77.40
5796;DHT22;2924;51.458;7.046;2023-06-14T13:38:14;26.90;76.80
5796;DHT22;2924;51.458;7.046;2023-06-14T13:40:40;26.20;77.90
5796;DHT22;2924;51.458;7.046;2023-06-14T13:43:06;25.50;79.30
5796;DHT22;2924;51.458;7.046;2023-06-14T13:45:31;25.50;78.80
5796;DHT22;2924;51.458;7.046;2023-06-14T13:47:57;25.80;78.80
5796;DHT22;2924;51.458;7.046;2023-06-14T13:50:22;25.30;78.30
5796;DHT22;2924;51.458;7.046;2023-06-14T13:52:48;24.50;79.60
5796;DHT22;2924;51.458;7.046;2023-06-14T13:55:14;25.30;79.10
5796;DHT22;2924;51.458;7.046;2023-06-14T13:57:39;26.20;78.30
5796;DHT22;2924;51.458;7.046;2023-06-14T14:00:06;26.30;77.00
5796;DHT22;2924;51.458;7.046;2023-06-14T14:02:31;25.50;77.10
5796;DHT22;2924;51.458;7.046;2023-06-14T14:04:57;25.10;78.10
5796;DHT22;2924;51.458;7.046;2023-06-14T14:07:22;25.40;78.40
5796;DHT22;2924;51.458;7.046;2023-06-14T14:09:49;24.80;79.10
5796;DHT22;2924;51.458;7.046;2023-06-14T14:12:15;24.90;79.30
5796;DHT22;2924;51.458;7.046;2023-06-14T14:14:40;25.00;79.00
5796;DHT22;2924;51.458;7.046;2023-06-14T14:17:06;25.30;77.60
5796;DHT22;2924;51.458;7.046;2023-06-14T14:19:32;25.10;78.20
5796;DHT22;2924;51.458;7.046;2023-06-14T14:21:58;25.00;79.10
5796;DHT22;2924;51.458;7.046;2023-06-14T14:24:24;24.50;78.80
5796;DHT22;2924;51.458;7.046;2023-06-14T14:26:51;24.60;79.00
5796;DHT22;2924;51.458;7.046;2023-06-14T14:29:19;24.40;79.80
5796;DHT22;2924;51.458;7.046;2023-06-14T14:31:48;25.00;79.40
5796;DHT22;2924;51.458;7.046;2023-06-14T14:34:13;25.30;79.00
5796;DHT22;2924;51.458;7.046;2023-06-14T14:36:39;25.30;77.70
5796;DHT22;2924;51.458;7.046;2023-06-14T14:39:08;25.00;77.90
5796;DHT22;2924;51.458;7.046;2023-06-14T14:41:34;25.50;78.00
5796;DHT22;2924;51.458;7.046;2023-06-14T14:43:59;25.70;77.60
5796;DHT22;2924;51.458;7.046;2023-06-14T14:46:26;26.00;79.00
5796;DHT22;2924;51.458;7.046;2023-06-14T14:48:52;26.10;78.40
5796;DHT22;2924;51.458;7.046;2023-06-14T14:51:18;26.00;76.60
5796;DHT22;2924;51.458;7.046;2023-06-14T14:53:44;25.10;77.90
5796;DHT22;2924;51.458;7.046;2023-06-14T14:56:09;25.40;78.30
5796;DHT22;2924;51.458;7.046;2023-06-14T14:58:37;25.80;78.10
5796;DHT22;2924;51.458;7.046;2023-06-14T15:01:03;25.50;77.40
5796;DHT22;2924;51.458;7.046;2023-06-14T15:03:31;25.30;77.50
5796;DHT22;2924;51.458;7.046;2023-06-14T15:05:56;25.70;77.70
5796;DHT22;2924;51.458;7.046;2023-06-14T15:08:22;25.70;78.30
5796;DHT22;2924;51.458;7.046;2023-06-14T15:10:47;26.40;77.40
5796;DHT22;2924;51.458;7.046;2023-06-14T15:13:13;26.90;77.40
5796;DHT22;2924;51.458;7.046;2023-06-14T15:15:39;26.10;76.90
5796;DHT22;2924;51.458;7.046;2023-06-14T15:18:05;26.10;77.40
5796;DHT22;2924;51.458;7.046;2023-06-14T15:20:31;25.60;78.20
5796;DHT22;2924;51.458;7.046;2023-06-14T15:22:57;25.30;77.90
5796;DHT22;2924;51.458;7.046;2023-06-14T15:25:27;26.00;77.90
5796;DHT22;2924;51.458;7.046;2023-06-14T15:27:52;25.90;77.70
5796;DHT22;2924;51.458;7.046;2023-06-14T15:30:19;26.10;77.30
5796;DHT22;2924;51.458;7.046;2023-06-14T15:32:44;26.30;77.70
5796;DHT22;2924;51.458;7.046;2023-06-14T15:35:10;25.90;76.70
5796;DHT22;2924;51.458;7.046;2023-06-14T15:37:37;25.40;77.60
5796;DHT22;2924;51.458;7.046;2023-06-14T15:40:04;25.40;77.30
5796;DHT22;2924;51.458;7.046;2023-06-14T15:42:30;25.40;77.80
5796;DHT22;2924;51.458;7.046;2023-06-14T15:44:55;24.80;78.10
5796;DHT22;2924;51.458;7.046;2023-06-14T15:47:21;24.50;78.40
5796;DHT22;2924;51.458;7.046;2023-06-14T15:49:46;24.60;77.90
5796;DHT22;2924;51.458;7.046;2023-06-14T15:52:12;24.50;78.10
5796;DHT22;2924;51.458;7.046;2023-06-14T15:54:38;24.80;78.60
5796;DHT22;2924;51.458;7.046;2023-06-14T15:57:03;25.10;78.20
5796;DHT22;2924;51.458;7.046;2023-06-14T15:59:29;24.70;77.40
5796;DHT22;2924;51.458;7.046;2023-06-14T16:01:55;24.60;78.30
5796;DHT22;2924;51.458;7.046;2023-06-14T16:04:20;24.50;78.50
5796;DHT22;2924;51.458;7.046;2023-06-14T16:06:46;24.90;78.50
5796;DHT22;2924;51.458;7.046;2023-06-14T16:09:12;25.10;78.20
5796;DHT22;2924;51.458;7.046;2023-06-14T16:11:37;25.30;77.80
5796;DHT22;2924;51.458;7.046;2023-06-14T16:14:03;24.80;77.60
5796;DHT22;2924;51.458;7.046;2023-06-14T16:16:29;24.90;77.70
5796;DHT22;2924;51.458;7.046;2023-06-14T16:18:55;25.00;78.40
5796;DHT22;2924;51.458;7.046;2023-06-14T16:21:20;24.70;77.50